sensor_id;sensor_type;location;lat;lon;timestamp;P1;durP1;ratioP1;P2;durP2;ratioP2
9436;SDS011;4757;59.334;18.034;2024-01-30T00:01:59;24.80;;;14.93;;
9436;SDS011;4757;59.334;18.034;2024-01-30T00:04:26;24.80;;;14.60;;
9436;SDS011;4757;59.334;18.034;2024-01-30T00:06:53;23.90;;;14.05;;
9436;SDS011;4757;59.334;18.034;2024-01-30T00:09:21;23.92;;;12.98;;
9436;SDS011;4757;59.334;18.034;2024-01-30T00:11:48;24.33;;;13.27;;
9436;SDS011;4757;59.334;18.034;2024-01-30T00:14:15;23.73;;;12.65;;
9436;SDS011;4757;59.334;18.034;2024-01-30T00:16:42;24.63;;;12.52;;
9436;SDS011;4757;59.334;18.034;2024-01-30T00:19:09;20.63;;;11.50;;
9436;SDS011;4757;59.334;18.034;2024-01-30T00:21:37;24.02;;;13.23;;
9436;SDS011;4757;59.334;18.034;2024-01-30T00:24:04;24.33;;;12.95;;
9436;SDS011;4757;59.334;18.034;2024-01-30T00:26:31;24.35;;;12.82;;
9436;SDS011;4757;59.334;18.034;2024-01-30T00:28:58;23.98;;;13.02;;
9436;SDS011;4757;59.334;18.034;2024-01-30T00:31:26;24.95;;;14.38;;
9436;SDS011;4757;59.334;18.034;2024-01-30T00:33:53;20.77;;;12.63;;
9436;SDS011;4757;59.334;18.034;2024-01-30T00:36:20;23.20;;;12.80;;
9436;SDS011;4757;59.334;18.034;2024-01-30T00:38:48;24.52;;;12.55;;
9436;SDS011;4757;59.334;18.034;2024-01-30T00:41:17;25.20;;;13.45;;
9436;SDS011;4757;59.334;18.034;2024-01-30T00:43:45;24.52;;;13.80;;
9436;SDS011;4757;59.334;18.034;2024-01-30T00:46:12;23.17;;;13.18;;
9436;SDS011;4757;59.334;18.034;2024-01-30T00:48:41;29.63;;;14.52;;
9436;SDS011;4757;59.334;18.034;2024-01-30T00:51:08;23.05;;;14.88;;
9436;SDS011;4757;59.334;18.034;2024-01-30T00:53:35;20.65;;;12.77;;
9436;SDS011;4757;59.334;18.034;2024-01-30T00:56:02;20.47;;;12.13;;
9436;SDS011;4757;59.334;18.034;2024-01-30T00:58:30;19.58;;;12.30;;
9436;SDS011;4757;59.334;18.034;2024-01-30T01:00:57;22.88;;;12.90;;
9436;SDS011;4757;59.334;18.034;2024-01-30T01:03:24;26.80;;;12.37;;
9436;SDS011;4757;59.334;18.034;2024-01-30T01:05:51;21.83;;;12.95;;
9436;SDS011;4757;59.334;18.034;2024-01-30T01:08:19;24.30;;;13.87;;
9436;SDS011;4757;59.334;18.034;2024-01-30T01:10:46;24.08;;;12.38;;
9436;SDS011;4757;59.334;18.034;2024-01-30T01:13:13;24.23;;;12.38;;
9436;SDS011;4757;59.334;18.034;2024-01-30T01:15:41;25.63;;;13.13;;
9436;SDS011;4757;59.334;18.034;2024-01-30T01:18:08;21.80;;;12.50;;
9436;SDS011;4757;59.334;18.034;2024-01-30T01:20:35;22.30;;;12.68;;
9436;SDS011;4757;59.334;18.034;2024-01-30T01:23:02;25.73;;;13.27;;
9436;SDS011;4757;59.334;18.034;2024-01-30T01:25:30;25.13;;;14.27;;
9436;SDS011;4757;59.334;18.034;2024-01-30T01:27:57;31.55;;;16.08;;
9436;SDS011;4757;59.334;18.034;2024-01-30T01:30:24;21.15;;;13.07;;
9436;SDS011;4757;59.334;18.034;2024-01-30T01:32:52;23.63;;;12.83;;
9436;SDS011;4757;59.334;18.034;2024-01-30T01:35:23;25.50;;;13.05;;
9436;SDS011;4757;59.334;18.034;2024-01-30T01:37:51;29.23;;;15.60;;
9436;SDS011;4757;59.334;18.034;2024-01-30T01:40:24;22.65;;;12.68;;
9436;SDS011;4757;59.334;18.034;2024-01-30T01:42:55;25.40;;;12.55;;
9436;SDS011;4757;59.334;18.034;2024-01-30T01:45:22;26.75;;;15.02;;
9436;SDS011;4757;59.334;18.034;2024-01-30T01:47:52;29.40;;;16.08;;
9436;SDS011;4757;59.334;18.034;2024-01-30T01:50:20;24.17;;;12.97;;
9436;SDS011;4757;59.334;18.034;2024-01-30T01:52:49;23.23;;;12.38;;
9436;SDS011;4757;59.334;18.034;2024-01-30T01:55:17;23.45;;;12.90;;
9436;SDS011;4757;59.334;18.034;2024-01-30T01:57:48;21.67;;;12.52;;
9436;SDS011;4757;59.334;18.034;2024-01-30T02:00:16;20.20;;;12.50;;
9436;SDS011;4757;59.334;18.034;2024-01-30T02:02:45;23.30;;;13.37;;
9436;SDS011;4757;59.334;18.034;2024-01-30T02:05:14;26.98;;;14.23;;
9436;SDS011;4757;59.334;18.034;2024-01-30T02:07:42;28.25;;;15.23;;
9436;SDS011;4757;59.334;18.034;2024-01-30T02:10:10;29.53;;;13.67;;
9436;SDS011;4757;59.334;18.034;2024-01-30T02:12:38;21.93;;;12.93;;
9436;SDS011;4757;59.334;18.034;2024-01-30T02:15:06;21.45;;;11.95;;
9436;SDS011;4757;59.334;18.034;2024-01-30T02:17:34;22.87;;;12.67;;
9436;SDS011;4757;59.334;18.034;2024-01-30T02:20:02;25.90;;;13.10;;
9436;SDS011;4757;59.334;18.034;2024-01-30T02:22:30;24.60;;;13.27;;
9436;SDS011;4757;59.334;18.034;2024-01-30T02:25:00;25.67;;;12.90;;
9436;SDS011;4757;59.334;18.034;2024-01-30T02:27:27;27.67;;;13.65;;
9436;SDS011;4757;59.334;18.034;2024-01-30T02:29:54;30.63;;;14.68;;
9436;SDS011;4757;59.334;18.034;2024-01-30T02:32:21;29.83;;;14.50;;
9436;SDS011;4757;59.334;18.034;2024-01-30T02:34:48;27.53;;;14.10;;
9436;SDS011;4757;59.334;18.034;2024-01-30T02:37:16;31.13;;;14.35;;
9436;SDS011;4757;59.334;18.034;2024-01-30T02:39:44;23.73;;;14.20;;
9436;SDS011;4757;59.334;18.034;2024-01-30T02:42:11;31.42;;;15.00;;
9436;SDS011;4757;59.334;18.034;2024-01-30T02:44:38;26.98;;;14.50;;
9436;SDS011;4757;59.334;18.034;2024-01-30T02:47:05;22.67;;;13.35;;
9436;SDS011;4757;59.334;18.034;2024-01-30T02:49:33;24.85;;;13.80;;
9436;SDS011;4757;59.334;18.034;2024-01-30T02:52:00;29.75;;;13.70;;
9436;SDS011;4757;59.334;18.034;2024-01-30T02:54:27;24.60;;;13.50;;
9436;SDS011;4757;59.334;18.034;2024-01-30T02:56:54;25.27;;;13.27;;
9436;SDS011;4757;59.334;18.034;2024-01-30T02:59:21;27.50;;;13.70;;
9436;SDS011;4757;59.334;18.034;2024-01-30T03:01:48;23.33;;;10.10;;
9436;SDS011;4757;59.334;18.034;2024-01-30T03:04:16;26.20;;;9.77;;
9436;SDS011;4757;59.334;18.034;2024-01-30T03:06:46;21.43;;;9.30;;
9436;SDS011;4757;59.334;18.034;2024-01-30T03:09:16;19.77;;;8.67;;
9436;SDS011;4757;59.334;18.034;2024-01-30T03:11:44;27.10;;;8.37;;
9436;SDS011;4757;59.334;18.034;2024-01-30T03:14:11;21.13;;;9.43;;
9436;SDS011;4757;59.334;18.034;2024-01-30T03:16:38;20.67;;;8.40;;
9436;SDS011;4757;59.334;18.034;2024-01-30T03:19:06;25.23;;;9.40;;
9436;SDS011;4757;59.334;18.034;2024-01-30T03:21:36;28.40;;;10.60;;
9436;SDS011;4757;59.334;18.034;2024-01-30T03:24:04;26.20;;;9.20;;
9436;SDS011;4757;59.334;18.034;2024-01-30T03:26:31;22.40;;;8.20;;
9436;SDS011;4757;59.334;18.034;2024-01-30T03:28:58;27.23;;;9.60;;
9436;SDS011;4757;59.334;18.034;2024-01-30T03:31:25;21.73;;;8.70;;
9436;SDS011;4757;59.334;18.034;2024-01-30T03:33:53;25.93;;;9.03;;
9436;SDS011;4757;59.334;18.034;2024-01-30T03:36:20;27.13;;;9.83;;
9436;SDS011;4757;59.334;18.034;2024-01-30T03:38:47;27.70;;;9.57;;
9436;SDS011;4757;59.334;18.034;2024-01-30T03:41:14;22.63;;;8.77;;
9436;SDS011;4757;59.334;18.034;2024-01-30T03:43:41;20.43;;;8.33;;
9436;SDS011;4757;59.334;18.034;2024-01-30T03:46:11;19.93;;;8.97;;
9436;SDS011;4757;59.334;18.034;2024-01-30T03:48:39;20.03;;;8.30;;
9436;SDS011;4757;59.334;18.034;2024-01-30T03:51:06;23.23;;;8.30;;
9436;SDS011;4757;59.334;18.034;2024-01-30T03:53:33;22.60;;;10.30;;
9436;SDS011;4757;59.334;18.034;2024-01-30T03:56:01;17.90;;;7.93;;
9436;SDS011;4757;59.334;18.034;2024-01-30T03:58:29;19.67;;;7.17;;
9436;SDS011;4757;59.334;18.034;2024-01-30T04:00:56;17.43;;;7.17;;
9436;SDS011;4757;59.334;18.034;2024-01-30T04:03:24;26.10;;;8.43;;
9436;SDS011;4757;59.334;18.034;2024-01-30T04:05:51;19.40;;;8.20;;
9436;SDS011;4757;59.334;18.034;2024-01-30T04:08:19;19.63;;;7.50;;
9436;SDS011;4757;59.334;18.034;2024-01-30T04:10:47;13.43;;;7.13;;
9436;SDS011;4757;59.334;18.034;2024-01-30T04:13:14;17.67;;;8.60;;
9436;SDS011;4757;59.334;18.034;2024-01-30T04:15:41;14.53;;;6.70;;
9436;SDS011;4757;59.334;18.034;2024-01-30T04:18:10;16.37;;;7.73;;
9436;SDS011;4757;59.334;18.034;2024-01-30T04:20:37;18.63;;;8.57;;
9436;SDS011;4757;59.334;18.034;2024-01-30T04:23:04;21.40;;;10.57;;
9436;SDS011;4757;59.334;18.034;2024-01-30T04:25:31;19.00;;;8.27;;
9436;SDS011;4757;59.334;18.034;2024-01-30T04:27:59;23.20;;;8.70;;
9436;SDS011;4757;59.334;18.034;2024-01-30T04:30:26;16.80;;;8.77;;
9436;SDS011;4757;59.334;18.034;2024-01-30T04:32:53;17.80;;;9.30;;
9436;SDS011;4757;59.334;18.034;2024-01-30T04:35:20;17.03;;;8.37;;
9436;SDS011;4757;59.334;18.034;2024-01-30T04:37:51;21.50;;;10.10;;
9436;SDS011;4757;59.334;18.034;2024-01-30T04:40:20;20.37;;;9.10;;
9436;SDS011;4757;59.334;18.034;2024-01-30T04:42:47;18.23;;;8.80;;
9436;SDS011;4757;59.334;18.034;2024-01-30T04:45:15;20.73;;;9.30;;
9436;SDS011;4757;59.334;18.034;2024-01-30T04:47:42;31.37;;;10.10;;
9436;SDS011;4757;59.334;18.034;2024-01-30T04:50:09;22.33;;;10.43;;
9436;SDS011;4757;59.334;18.034;2024-01-30T04:52:36;19.33;;;11.60;;
9436;SDS011;4757;59.334;18.034;2024-01-30T04:55:04;26.83;;;10.57;;
9436;SDS011;4757;59.334;18.034;2024-01-30T04:57:31;18.60;;;10.07;;
9436;SDS011;4757;59.334;18.034;2024-01-30T05:00:00;12.63;;;8.03;;
9436;SDS011;4757;59.334;18.034;2024-01-30T05:02:27;17.53;;;8.50;;
9436;SDS011;4757;59.334;18.034;2024-01-30T05:04:54;14.27;;;9.07;;
9436;SDS011;4757;59.334;18.034;2024-01-30T05:07:21;13.87;;;8.70;;
9436;SDS011;4757;59.334;18.034;2024-01-30T05:09:49;15.33;;;8.20;;
9436;SDS011;4757;59.334;18.034;2024-01-30T05:12:16;15.00;;;8.47;;
9436;SDS011;4757;59.334;18.034;2024-01-30T05:14:43;14.57;;;8.73;;
9436;SDS011;4757;59.334;18.034;2024-01-30T05:17:10;14.90;;;8.10;;
9436;SDS011;4757;59.334;18.034;2024-01-30T05:19:39;15.30;;;7.90;;
9436;SDS011;4757;59.334;18.034;2024-01-30T05:22:06;14.40;;;8.33;;
9436;SDS011;4757;59.334;18.034;2024-01-30T05:24:33;18.07;;;9.53;;
9436;SDS011;4757;59.334;18.034;2024-01-30T05:27:00;20.50;;;9.83;;
9436;SDS011;4757;59.334;18.034;2024-01-30T05:29:27;20.57;;;11.47;;
9436;SDS011;4757;59.334;18.034;2024-01-30T05:31:55;18.53;;;11.27;;
9436;SDS011;4757;59.334;18.034;2024-01-30T05:34:22;20.40;;;11.13;;
9436;SDS011;4757;59.334;18.034;2024-01-30T05:36:49;20.23;;;10.97;;
9436;SDS011;4757;59.334;18.034;2024-01-30T05:39:16;19.73;;;11.10;;
9436;SDS011;4757;59.334;18.034;2024-01-30T05:41:43;16.93;;;9.40;;
9436;SDS011;4757;59.334;18.034;2024-01-30T05:44:11;18.83;;;9.73;;
9436;SDS011;4757;59.334;18.034;2024-01-30T05:46:38;16.67;;;10.27;;
9436;SDS011;4757;59.334;18.034;2024-01-30T05:49:05;15.80;;;9.07;;
9436;SDS011;4757;59.334;18.034;2024-01-30T05:51:33;12.57;;;8.27;;
9436;SDS011;4757;59.334;18.034;2024-01-30T05:54:00;15.70;;;7.63;;
9436;SDS011;4757;59.334;18.034;2024-01-30T05:56:30;20.70;;;14.47;;
9436;SDS011;4757;59.334;18.034;2024-01-30T05:58:57;9.93;;;7.10;;
9436;SDS011;4757;59.334;18.034;2024-01-30T06:01:24;10.80;;;6.87;;
9436;SDS011;4757;59.334;18.034;2024-01-30T06:03:51;11.07;;;7.20;;
9436;SDS011;4757;59.334;18.034;2024-01-30T06:06:18;11.83;;;7.17;;
9436;SDS011;4757;59.334;18.034;2024-01-30T06:08:46;10.77;;;7.10;;
9436;SDS011;4757;59.334;18.034;2024-01-30T06:11:13;10.07;;;5.77;;
9436;SDS011;4757;59.334;18.034;2024-01-30T06:13:40;8.77;;;5.93;;
9436;SDS011;4757;59.334;18.034;2024-01-30T06:16:10;7.73;;;6.03;;
9436;SDS011;4757;59.334;18.034;2024-01-30T06:18:38;9.57;;;6.07;;
9436;SDS011;4757;59.334;18.034;2024-01-30T06:21:05;16.87;;;9.77;;
9436;SDS011;4757;59.334;18.034;2024-01-30T06:23:36;12.23;;;8.77;;
9436;SDS011;4757;59.334;18.034;2024-01-30T06:26:03;20.30;;;8.90;;
9436;SDS011;4757;59.334;18.034;2024-01-30T06:28:30;15.97;;;8.60;;
9436;SDS011;4757;59.334;18.034;2024-01-30T06:30:57;17.57;;;9.40;;
9436;SDS011;4757;59.334;18.034;2024-01-30T06:33:27;15.33;;;8.27;;
9436;SDS011;4757;59.334;18.034;2024-01-30T06:35:54;16.73;;;8.00;;
9436;SDS011;4757;59.334;18.034;2024-01-30T06:38:21;16.23;;;7.73;;
9436;SDS011;4757;59.334;18.034;2024-01-30T06:40:48;14.80;;;9.00;;
9436;SDS011;4757;59.334;18.034;2024-01-30T06:43:17;14.23;;;8.67;;
9436;SDS011;4757;59.334;18.034;2024-01-30T06:45:44;13.33;;;8.07;;
9436;SDS011;4757;59.334;18.034;2024-01-30T06:48:11;15.13;;;9.33;;
9436;SDS011;4757;59.334;18.034;2024-01-30T06:50:38;17.47;;;8.80;;
9436;SDS011;4757;59.334;18.034;2024-01-30T06:53:06;16.07;;;10.20;;
9436;SDS011;4757;59.334;18.034;2024-01-30T06:55:33;17.97;;;10.30;;
9436;SDS011;4757;59.334;18.034;2024-01-30T06:58:00;15.97;;;9.00;;
9436;SDS011;4757;59.334;18.034;2024-01-30T07:00:27;17.10;;;10.63;;
9436;SDS011;4757;59.334;18.034;2024-01-30T07:02:56;18.87;;;10.67;;
9436;SDS011;4757;59.334;18.034;2024-01-30T07:05:23;14.37;;;9.20;;
9436;SDS011;4757;59.334;18.034;2024-01-30T07:07:50;18.03;;;10.33;;
9436;SDS011;4757;59.334;18.034;2024-01-30T07:10:17;24.10;;;9.53;;
9436;SDS011;4757;59.334;18.034;2024-01-30T07:12:44;22.63;;;12.73;;
9436;SDS011;4757;59.334;18.034;2024-01-30T07:15:12;26.50;;;16.33;;
9436;SDS011;4757;59.334;18.034;2024-01-30T07:17:42;13.97;;;9.73;;
9436;SDS011;4757;59.334;18.034;2024-01-30T07:20:10;21.27;;;11.23;;
9436;SDS011;4757;59.334;18.034;2024-01-30T07:22:42;21.70;;;12.33;;
9436;SDS011;4757;59.334;18.034;2024-01-30T07:25:10;16.40;;;9.40;;
9436;SDS011;4757;59.334;18.034;2024-01-30T07:27:38;12.90;;;7.07;;
9436;SDS011;4757;59.334;18.034;2024-01-30T07:30:05;15.37;;;9.10;;
9436;SDS011;4757;59.334;18.034;2024-01-30T07:32:33;14.23;;;8.37;;
9436;SDS011;4757;59.334;18.034;2024-01-30T07:35:00;15.57;;;8.60;;
9436;SDS011;4757;59.334;18.034;2024-01-30T07:37:34;15.47;;;7.93;;
9436;SDS011;4757;59.334;18.034;2024-01-30T07:40:02;11.10;;;6.87;;
9436;SDS011;4757;59.334;18.034;2024-01-30T07:42:30;13.77;;;8.03;;
9436;SDS011;4757;59.334;18.034;2024-01-30T07:44:58;13.40;;;7.17;;
9436;SDS011;4757;59.334;18.034;2024-01-30T07:47:25;16.60;;;8.00;;
9436;SDS011;4757;59.334;18.034;2024-01-30T07:49:53;13.60;;;6.93;;
9436;SDS011;4757;59.334;18.034;2024-01-30T07:52:21;12.33;;;7.40;;
9436;SDS011;4757;59.334;18.034;2024-01-30T07:54:54;13.20;;;8.03;;
9436;SDS011;4757;59.334;18.034;2024-01-30T07:57:22;17.97;;;7.73;;
9436;SDS011;4757;59.334;18.034;2024-01-30T07:59:49;14.37;;;7.27;;
9436;SDS011;4757;59.334;18.034;2024-01-30T08:02:16;16.40;;;6.80;;
9436;SDS011;4757;59.334;18.034;2024-01-30T08:04:43;14.90;;;7.07;;
9436;SDS011;4757;59.334;18.034;2024-01-30T08:07:15;15.80;;;6.90;;
9436;SDS011;4757;59.334;18.034;2024-01-30T08:09:44;12.20;;;7.23;;
9436;SDS011;4757;59.334;18.034;2024-01-30T08:12:11;16.70;;;7.30;;
9436;SDS011;4757;59.334;18.034;2024-01-30T08:14:40;13.30;;;7.43;;
9436;SDS011;4757;59.334;18.034;2024-01-30T08:17:07;11.33;;;6.40;;
9436;SDS011;4757;59.334;18.034;2024-01-30T08:19:34;17.93;;;8.13;;
9436;SDS011;4757;59.334;18.034;2024-01-30T08:22:02;11.77;;;6.90;;
9436;SDS011;4757;59.334;18.034;2024-01-30T08:24:29;13.97;;;8.07;;
9436;SDS011;4757;59.334;18.034;2024-01-30T08:26:56;14.10;;;7.37;;
9436;SDS011;4757;59.334;18.034;2024-01-30T08:29:24;12.40;;;6.73;;
9436;SDS011;4757;59.334;18.034;2024-01-30T08:31:52;10.27;;;5.67;;
9436;SDS011;4757;59.334;18.034;2024-01-30T08:34:20;10.33;;;6.50;;
9436;SDS011;4757;59.334;18.034;2024-01-30T08:36:47;11.50;;;6.00;;
9436;SDS011;4757;59.334;18.034;2024-01-30T08:39:14;9.77;;;6.53;;
9436;SDS011;4757;59.334;18.034;2024-01-30T08:41:42;19.13;;;10.83;;
9436;SDS011;4757;59.334;18.034;2024-01-30T08:44:09;19.03;;;7.30;;
9436;SDS011;4757;59.334;18.034;2024-01-30T08:46:37;12.43;;;6.80;;
9436;SDS011;4757;59.334;18.034;2024-01-30T08:49:05;12.40;;;7.07;;
9436;SDS011;4757;59.334;18.034;2024-01-30T08:51:32;16.23;;;7.87;;
9436;SDS011;4757;59.334;18.034;2024-01-30T08:54:00;14.57;;;7.63;;
9436;SDS011;4757;59.334;18.034;2024-01-30T08:56:27;12.43;;;7.27;;
9436;SDS011;4757;59.334;18.034;2024-01-30T08:58:54;10.53;;;7.03;;
9436;SDS011;4757;59.334;18.034;2024-01-30T09:01:21;12.13;;;6.10;;
9436;SDS011;4757;59.334;18.034;2024-01-30T09:03:49;12.93;;;6.83;;
9436;SDS011;4757;59.334;18.034;2024-01-30T09:06:16;11.80;;;7.47;;
9436;SDS011;4757;59.334;18.034;2024-01-30T09:08:43;14.93;;;7.43;;
9436;SDS011;4757;59.334;18.034;2024-01-30T09:11:14;10.37;;;6.33;;
9436;SDS011;4757;59.334;18.034;2024-01-30T09:13:42;10.23;;;5.47;;
9436;SDS011;4757;59.334;18.034;2024-01-30T09:16:10;10.97;;;6.63;;
9436;SDS011;4757;59.334;18.034;2024-01-30T09:18:37;12.80;;;6.87;;
9436;SDS011;4757;59.334;18.034;2024-01-30T09:21:04;9.73;;;6.37;;
9436;SDS011;4757;59.334;18.034;2024-01-30T09:23:31;10.90;;;7.17;;
9436;SDS011;4757;59.334;18.034;2024-01-30T09:25:59;10.80;;;6.33;;
9436;SDS011;4757;59.334;18.034;2024-01-30T09:28:38;10.83;;;6.53;;
9436;SDS011;4757;59.334;18.034;2024-01-30T09:31:20;11.20;;;6.20;;
9436;SDS011;4757;59.334;18.034;2024-01-30T09:33:48;14.73;;;6.70;;
9436;SDS011;4757;59.334;18.034;2024-01-30T09:36:17;15.80;;;7.03;;
9436;SDS011;4757;59.334;18.034;2024-01-30T09:38:49;12.27;;;7.97;;
9436;SDS011;4757;59.334;18.034;2024-01-30T09:41:16;13.80;;;7.33;;
9436;SDS011;4757;59.334;18.034;2024-01-30T09:43:47;12.20;;;6.50;;
9436;SDS011;4757;59.334;18.034;2024-01-30T09:46:16;13.43;;;6.87;;
9436;SDS011;4757;59.334;18.034;2024-01-30T09:48:47;15.10;;;6.60;;
9436;SDS011;4757;59.334;18.034;2024-01-30T09:51:16;13.17;;;7.57;;
9436;SDS011;4757;59.334;18.034;2024-01-30T09:53:49;11.40;;;7.10;;
9436;SDS011;4757;59.334;18.034;2024-01-30T09:56:17;11.40;;;7.40;;
9436;SDS011;4757;59.334;18.034;2024-01-30T09:58:44;10.27;;;7.57;;
9436;SDS011;4757;59.334;18.034;2024-01-30T10:01:12;12.60;;;7.73;;
9436;SDS011;4757;59.334;18.034;2024-01-30T10:03:45;11.27;;;6.77;;
9436;SDS011;4757;59.334;18.034;2024-01-30T10:06:12;13.93;;;6.70;;
9436;SDS011;4757;59.334;18.034;2024-01-30T10:08:42;10.33;;;6.87;;
9436;SDS011;4757;59.334;18.034;2024-01-30T10:11:09;12.10;;;7.37;;
9436;SDS011;4757;59.334;18.034;2024-01-30T10:13:38;12.53;;;7.43;;
9436;SDS011;4757;59.334;18.034;2024-01-30T10:16:05;14.57;;;8.03;;
9436;SDS011;4757;59.334;18.034;2024-01-30T10:18:33;11.67;;;6.97;;
9436;SDS011;4757;59.334;18.034;2024-01-30T10:21:02;12.90;;;7.93;;
9436;SDS011;4757;59.334;18.034;2024-01-30T10:23:31;15.10;;;7.80;;
9436;SDS011;4757;59.334;18.034;2024-01-30T10:26:02;14.27;;;7.93;;
9436;SDS011;4757;59.334;18.034;2024-01-30T10:28:30;12.23;;;7.77;;
9436;SDS011;4757;59.334;18.034;2024-01-30T10:31:00;13.77;;;7.40;;
9436;SDS011;4757;59.334;18.034;2024-01-30T10:33:32;12.90;;;8.07;;
9436;SDS011;4757;59.334;18.034;2024-01-30T10:36:00;20.77;;;9.63;;
9436;SDS011;4757;59.334;18.034;2024-01-30T10:38:29;14.47;;;8.63;;
9436;SDS011;4757;59.334;18.034;2024-01-30T10:40:57;14.83;;;8.53;;
9436;SDS011;4757;59.334;18.034;2024-01-30T10:43:35;12.00;;;7.57;;
9436;SDS011;4757;59.334;18.034;2024-01-30T10:49:04;15.63;;;8.27;;
9436;SDS011;4757;59.334;18.034;2024-01-30T10:51:32;17.20;;;10.77;;
9436;SDS011;4757;59.334;18.034;2024-01-30T10:54:03;14.90;;;7.97;;
9436;SDS011;4757;59.334;18.034;2024-01-30T10:56:32;14.80;;;8.23;;
9436;SDS011;4757;59.334;18.034;2024-01-30T10:59:01;20.23;;;9.30;;
9436;SDS011;4757;59.334;18.034;2024-01-30T11:01:30;17.17;;;9.33;;
9436;SDS011;4757;59.334;18.034;2024-01-30T11:03:58;14.17;;;8.43;;
9436;SDS011;4757;59.334;18.034;2024-01-30T11:06:28;16.17;;;8.43;;
9436;SDS011;4757;59.334;18.034;2024-01-30T11:11:55;15.77;;;8.23;;
9436;SDS011;4757;59.334;18.034;2024-01-30T11:14:31;19.73;;;10.13;;
9436;SDS011;4757;59.334;18.034;2024-01-30T11:16:59;20.97;;;10.50;;
9436;SDS011;4757;59.334;18.034;2024-01-30T11:19:27;18.17;;;9.57;;
9436;SDS011;4757;59.334;18.034;2024-01-30T11:21:59;22.87;;;11.80;;
9436;SDS011;4757;59.334;18.034;2024-01-30T11:24:27;57.73;;;33.67;;
9436;SDS011;4757;59.334;18.034;2024-01-30T11:26:58;22.93;;;13.23;;
9436;SDS011;4757;59.334;18.034;2024-01-30T11:29:29;42.60;;;31.00;;
9436;SDS011;4757;59.334;18.034;2024-01-30T11:31:59;16.30;;;9.73;;
9436;SDS011;4757;59.334;18.034;2024-01-30T11:34:27;19.50;;;9.83;;
9436;SDS011;4757;59.334;18.034;2024-01-30T11:37:03;16.17;;;9.43;;
9436;SDS011;4757;59.334;18.034;2024-01-30T11:39:38;23.47;;;14.07;;
9436;SDS011;4757;59.334;18.034;2024-01-30T11:42:07;15.83;;;9.13;;
9436;SDS011;4757;59.334;18.034;2024-01-30T11:44:35;19.53;;;9.30;;
9436;SDS011;4757;59.334;18.034;2024-01-30T11:47:03;18.80;;;9.67;;
9436;SDS011;4757;59.334;18.034;2024-01-30T11:49:30;20.27;;;11.23;;
9436;SDS011;4757;59.334;18.034;2024-01-30T11:51:58;15.97;;;9.83;;
9436;SDS011;4757;59.334;18.034;2024-01-30T11:54:25;16.17;;;9.33;;
9436;SDS011;4757;59.334;18.034;2024-01-30T11:56:52;17.47;;;9.90;;
9436;SDS011;4757;59.334;18.034;2024-01-30T11:59:20;19.00;;;10.40;;
9436;SDS011;4757;59.334;18.034;2024-01-30T12:01:47;17.77;;;9.27;;
9436;SDS011;4757;59.334;18.034;2024-01-30T12:04:15;16.73;;;8.93;;
9436;SDS011;4757;59.334;18.034;2024-01-30T12:06:42;20.60;;;10.97;;
9436;SDS011;4757;59.334;18.034;2024-01-30T12:09:10;21.07;;;10.27;;
9436;SDS011;4757;59.334;18.034;2024-01-30T12:11:43;18.73;;;9.77;;
9436;SDS011;4757;59.334;18.034;2024-01-30T12:14:14;16.53;;;10.17;;
9436;SDS011;4757;59.334;18.034;2024-01-30T12:16:41;17.67;;;9.73;;
9436;SDS011;4757;59.334;18.034;2024-01-30T12:19:09;16.30;;;9.63;;
9436;SDS011;4757;59.334;18.034;2024-01-30T12:21:38;17.13;;;10.10;;
9436;SDS011;4757;59.334;18.034;2024-01-30T12:24:05;26.37;;;10.17;;
9436;SDS011;4757;59.334;18.034;2024-01-30T12:26:33;19.27;;;9.53;;
9436;SDS011;4757;59.334;18.034;2024-01-30T12:29:03;15.00;;;9.13;;
9436;SDS011;4757;59.334;18.034;2024-01-30T12:31:31;16.47;;;9.43;;
9436;SDS011;4757;59.334;18.034;2024-01-30T12:34:02;17.97;;;10.83;;
9436;SDS011;4757;59.334;18.034;2024-01-30T12:36:29;15.03;;;8.07;;
9436;SDS011;4757;59.334;18.034;2024-01-30T12:38:57;19.33;;;13.23;;
9436;SDS011;4757;59.334;18.034;2024-01-30T12:41:25;11.50;;;7.73;;
9436;SDS011;4757;59.334;18.034;2024-01-30T12:43:58;12.57;;;8.90;;
9436;SDS011;4757;59.334;18.034;2024-01-30T12:46:29;15.73;;;8.90;;
9436;SDS011;4757;59.334;18.034;2024-01-30T12:48:56;13.10;;;8.17;;
9436;SDS011;4757;59.334;18.034;2024-01-30T12:51:24;18.70;;;12.00;;
9436;SDS011;4757;59.334;18.034;2024-01-30T12:53:51;15.87;;;7.97;;
9436;SDS011;4757;59.334;18.034;2024-01-30T12:56:18;13.00;;;8.67;;
9436;SDS011;4757;59.334;18.034;2024-01-30T12:58:45;19.23;;;10.27;;
9436;SDS011;4757;59.334;18.034;2024-01-30T13:01:19;17.47;;;9.10;;
9436;SDS011;4757;59.334;18.034;2024-01-30T13:03:47;14.00;;;9.07;;
9436;SDS011;4757;59.334;18.034;2024-01-30T13:06:14;11.23;;;7.70;;
9436;SDS011;4757;59.334;18.034;2024-01-30T13:08:42;13.70;;;8.37;;
9436;SDS011;4757;59.334;18.034;2024-01-30T13:11:09;13.33;;;8.37;;
9436;SDS011;4757;59.334;18.034;2024-01-30T13:13:46;11.97;;;8.23;;
9436;SDS011;4757;59.334;18.034;2024-01-30T13:16:13;12.63;;;8.27;;
9436;SDS011;4757;59.334;18.034;2024-01-30T13:18:41;13.13;;;9.10;;
9436;SDS011;4757;59.334;18.034;2024-01-30T13:21:08;13.00;;;8.93;;
9436;SDS011;4757;59.334;18.034;2024-01-30T13:23:35;12.23;;;8.70;;
9436;SDS011;4757;59.334;18.034;2024-01-30T13:26:03;11.90;;;8.47;;
9436;SDS011;4757;59.334;18.034;2024-01-30T13:28:30;15.77;;;8.63;;
9436;SDS011;4757;59.334;18.034;2024-01-30T13:30:57;15.73;;;9.83;;
9436;SDS011;4757;59.334;18.034;2024-01-30T13:33:25;15.90;;;9.20;;
9436;SDS011;4757;59.334;18.034;2024-01-30T13:35:52;14.27;;;8.17;;
9436;SDS011;4757;59.334;18.034;2024-01-30T13:38:20;15.50;;;8.57;;
9436;SDS011;4757;59.334;18.034;2024-01-30T13:40:47;12.37;;;7.17;;
9436;SDS011;4757;59.334;18.034;2024-01-30T13:43:14;14.17;;;7.63;;
9436;SDS011;4757;59.334;18.034;2024-01-30T13:45:43;12.43;;;8.10;;
9436;SDS011;4757;59.334;18.034;2024-01-30T13:48:10;14.20;;;8.77;;
9436;SDS011;4757;59.334;18.034;2024-01-30T13:50:37;14.00;;;8.03;;
9436;SDS011;4757;59.334;18.034;2024-01-30T13:53:05;13.10;;;7.17;;
9436;SDS011;4757;59.334;18.034;2024-01-30T13:55:32;13.27;;;7.87;;
9436;SDS011;4757;59.334;18.034;2024-01-30T13:57:59;14.63;;;8.47;;
9436;SDS011;4757;59.334;18.034;2024-01-30T14:00:28;12.60;;;7.23;;
9436;SDS011;4757;59.334;18.034;2024-01-30T14:02:55;16.23;;;13.37;;
9436;SDS011;4757;59.334;18.034;2024-01-30T14:05:25;13.27;;;11.87;;
9436;SDS011;4757;59.334;18.034;2024-01-30T14:07:53;17.20;;;12.30;;
9436;SDS011;4757;59.334;18.034;2024-01-30T14:10:20;12.07;;;9.23;;
9436;SDS011;4757;59.334;18.034;2024-01-30T14:12:48;12.17;;;7.97;;
9436;SDS011;4757;59.334;18.034;2024-01-30T14:15:15;14.10;;;10.77;;
9436;SDS011;4757;59.334;18.034;2024-01-30T14:17:54;16.67;;;10.50;;
9436;SDS011;4757;59.334;18.034;2024-01-30T14:20:22;12.33;;;10.33;;
9436;SDS011;4757;59.334;18.034;2024-01-30T14:22:50;15.30;;;8.37;;
9436;SDS011;4757;59.334;18.034;2024-01-30T14:25:18;12.37;;;8.67;;
9436;SDS011;4757;59.334;18.034;2024-01-30T14:27:46;12.50;;;8.90;;
9436;SDS011;4757;59.334;18.034;2024-01-30T14:30:13;14.27;;;9.03;;
9436;SDS011;4757;59.334;18.034;2024-01-30T14:32:40;11.13;;;6.97;;
9436;SDS011;4757;59.334;18.034;2024-01-30T14:35:11;13.67;;;9.90;;
9436;SDS011;4757;59.334;18.034;2024-01-30T14:37:38;13.47;;;9.47;;
9436;SDS011;4757;59.334;18.034;2024-01-30T14:40:07;12.40;;;8.23;;
9436;SDS011;4757;59.334;18.034;2024-01-30T14:42:34;14.80;;;9.07;;
9436;SDS011;4757;59.334;18.034;2024-01-30T14:45:05;13.40;;;8.93;;
9436;SDS011;4757;59.334;18.034;2024-01-30T14:47:33;15.67;;;11.63;;
9436;SDS011;4757;59.334;18.034;2024-01-30T14:50:02;12.43;;;8.43;;
9436;SDS011;4757;59.334;18.034;2024-01-30T14:52:34;12.40;;;8.40;;
9436;SDS011;4757;59.334;18.034;2024-01-30T14:55:02;12.70;;;8.97;;